Time,TemperatureF,DewpointF,PressureIn,WindDirection,WindDirectionDegrees,WindSpeedMPH,WindSpeedGustMPH,Humidity,HourlyPrecipIn,Conditions,Clouds,dailyrainin,SoftwareType,DateUTC
2013-01-11 02:48:00,23.9,21.9,27.64,WNW,302,6.0,10.0,92,0.00,,,0.00,Wunderground v.1.15,2013-01-11 08:48:00,
2013-01-11 02:54:00,23.9,21.9,27.64,NNE,27,5.0,10.0,92,0.00,,,0.00,Wunderground v.1.15,2013-01-11 08:54:00,
2013-01-11 03:00:00,23.9,21.9,27.65,North,354,4.0,16.0,92,0.00,,,0.00,Wunderground v.1.15,2013-01-11 09:00:00,
2013-01-11 03:06:00,23.9,21.9,27.66,NW,322,4.0,16.0,92,0.00,,,0.00,Wunderground v.1.15,2013-01-11 09:06:00,
2013-01-11 03:12:00,23.8,21.8,27.66,NNW,330,6.0,16.0,92,0.00,,,0.00,Wunderground v.1.15,2013-01-11 09:12:00,
2013-01-11 03:18:00,23.8,21.8,27.66,NE,55,5.0,16.0,92,0.00,,,0.00,Wunderground v.1.15,2013-01-11 09:18:00,
2013-01-11 03:24:00,23.8,21.8,27.66,North,349,5.0,16.0,92,0.00,,,0.00,Wunderground v.1.15,2013-01-11 09:24:00,
2013-01-11 03:30:00,23.8,21.8,27.66,NNW,338,5.0,5.0,92,0.00,,,0.00,Wunderground v.1.15,2013-01-11 09:30:00,
2013-01-11 03:36:00,23.6,21.6,27.67,NNW,335,5.0,16.0,92,0.00,,,0.00,Wunderground v.1.15,2013-01-11 09:36:00,
2013-01-11 03:42:00,23.5,21.5,27.68,WNW,297,7.0,16.0,92,0.00,,,0.00,Wunderground v.1.15,2013-01-11 09:42:00,
2013-01-11 03:48:00,23.4,21.4,27.67,NW,316,6.0,16.0,92,0.00,,,0.00,Wunderground v.1.15,2013-01-11 09:48:00,
2013-01-11 03:54:00,23.2,21.2,27.67,NNE,29,6.0,16.0,92,0.00,,,0.00,Wunderground v.1.15,2013-01-11 09:54:00,
2013-01-11 04:00:00,22.8,20.8,27.67,NNW,335,8.0,16.0,92,0.00,,,0.00,Wunderground v.1.15,2013-01-11 10:00:00,
2013-01-11 04:06:00,22.6,20.6,27.67,NW,311,8.0,16.0,92,0.00,,,0.00,Wunderground v.1.15,2013-01-11 10:06:00,
2013-01-11 04:12:00,22.3,20.3,27.68,North,8,7.0,10.0,92,0.00,,,0.00,Wunderground v.1.15,2013-01-11 10:12:00,
2013-01-11 04:18:00,22.1,20.1,27.68,NW,323,6.0,16.0,92,0.00,,,0.00,Wunderground v.1.15,2013-01-11 10:18:00,
2013-01-11 04:24:00,21.9,19.9,27.69,NW,323,7.0,16.0,92,0.00,,,0.00,Wunderground v.1.15,2013-01-11 10:24:00,
2013-01-11 04:30:00,21.8,19.8,27.68,NW,323,7.0,16.0,92,0.00,,,0.00,Wunderground v.1.15,2013-01-11 10:30:00,
2013-01-11 04:36:00,21.3,19.1,27.68,NNW,340,7.0,16.0,91,0.00,,,0.00,Wunderground v.1.15,2013-01-11 10:36:00,
2013-01-11 04:42:00,21.0,18.8,27.69,West,276,7.0,16.0,91,0.00,,,0.00,Wunderground v.1.15,2013-01-11 10:42:00,
2013-01-11 04:48:00,20.9,18.9,27.68,NNE,18,6.0,16.0,92,0.00,,,0.00,Wunderground v.1.15,2013-01-11 10:48:00,
2013-01-11 04:54:00,20.8,18.8,27.68,NNW,327,7.0,16.0,92,0.00,,,0.00,Wunderground v.1.15,2013-01-11 10:54:00,
2013-01-11 05:00:00,20.6,18.4,27.68,NW,326,8.0,16.0,91,0.00,,,0.00,Wunderground v.1.15,2013-01-11 11:00:00,
2013-01-11 05:06:00,20.4,18.2,27.68,NNW,345,8.0,16.0,91,0.00,,,0.00,Wunderground v.1.15,2013-01-11 11:06:00,
2013-01-11 05:12:00,20.2,18.0,27.68,NE,34,6.0,16.0,91,0.00,,,0.00,Wunderground v.1.15,2013-01-11 11:12:00,
2013-01-11 05:18:00,20.0,17.8,27.67,NNW,347,7.0,16.0,91,0.00,,,0.00,Wunderground v.1.15,2013-01-11 11:18:00,
2013-01-11 05:24:00,19.9,17.7,27.67,NNE,27,7.0,16.0,91,0.00,,,0.00,Wunderground v.1.15,2013-01-11 11:24:00,
2013-01-11 05:30:00,19.8,17.6,27.67,North,10,6.0,16.0,91,0.00,,,0.00,Wunderground v.1.15,2013-01-11 11:30:00,
2013-01-11 05:36:00,19.7,17.5,27.67,North,6,6.0,16.0,91,0.00,,,0.00,Wunderground v.1.15,2013-01-11 11:36:00,
2013-01-11 05:42:00,19.5,17.3,27.68,North,9,7.0,16.0,91,0.00,,,0.00,Wunderground v.1.15,2013-01-11 11:42:00,
2013-01-11 05:48:00,19.1,16.7,27.68,NNW,339,6.0,16.0,90,0.00,,,0.00,Wunderground v.1.15,2013-01-11 11:48:00,
2013-01-11 05:54:00,18.6,16.2,27.68,NNW,335,7.0,16.0,90,0.00,,,0.00,Wunderground v.1.15,2013-01-11 11:54:00,
2013-01-11 06:00:00,18.5,16.3,27.67,NW,321,6.0,16.0,91,0.00,,,0.00,Wunderground v.1.15,2013-01-11 12:00:00,
2013-01-11 06:06:00,18.4,16.2,27.67,NW,316,5.0,16.0,91,0.00,,,0.00,Wunderground v.1.15,2013-01-11 12:06:00,
2013-01-11 06:12:00,18.4,16.5,27.68,NNW,344,6.0,16.0,92,0.00,,,0.00,Wunderground v.1.15,2013-01-11 12:12:00,
2013-01-11 06:18:00,18.4,16.2,27.68,NNW,346,6.0,16.0,91,0.00,,,0.00,Wunderground v.1.15,2013-01-11 12:18:00,
2013-01-11 06:24:00,18.1,15.9,27.69,NNW,344,6.0,16.0,91,0.00,,,0.00,Wunderground v.1.15,2013-01-11 12:24:00,
2013-01-11 06:30:00,17.9,15.7,27.69,NNW,345,6.0,6.0,91,0.00,,,0.00,Wunderground v.1.15,2013-01-11 12:30:00,
2013-01-11 06:36:00,17.7,15.5,27.68,NNW,335,6.0,16.0,91,0.00,,,0.00,Wunderground v.1.15,2013-01-11 12:36:00,
2013-01-11 06:42:00,17.5,15.3,27.68,WNW,295,6.0,16.0,91,0.00,,,0.00,Wunderground v.1.15,2013-01-11 12:42:00,
2013-01-11 06:48:00,17.5,15.3,27.67,NE,42,7.0,16.0,91,0.00,,,0.00,Wunderground v.1.15,2013-01-11 12:48:00,
2013-01-11 06:54:00,17.5,15.3,27.68,NE,55,7.0,16.0,91,0.00,,,0.00,Wunderground v.1.15,2013-01-11 12:54:00,
2013-01-11 07:00:00,17.4,15.2,27.68,NE,39,8.0,16.0,91,0.00,,,0.00,Wunderground v.1.15,2013-01-11 13:00:00,
2013-01-11 07:06:00,17.4,15.2,27.68,NNW,343,9.0,16.0,91,0.00,,,0.00,Wunderground v.1.15,2013-01-11 13:06:00,
2013-01-11 07:12:00,17.3,15.1,27.68,North,6,9.0,13.0,91,0.00,,,0.00,Wunderground v.1.15,2013-01-11 13:12:00,
2013-01-11 07:18:00,17.1,14.9,27.69,North,9,9.0,16.0,91,0.00,,,0.00,Wunderground v.1.15,2013-01-11 13:18:00,
2013-01-11 07:24:00,16.9,14.5,27.69,NNE,28,6.0,16.0,90,0.00,,,0.00,Wunderground v.1.15,2013-01-11 13:24:00,
2013-01-11 07:30:00,16.6,14.2,27.70,NNE,26,7.0,7.0,90,0.00,,,0.00,Wunderground v.1.15,2013-01-11 13:30:00,
2013-01-11 07:36:00,16.4,14.0,27.70,NNE,26,7.0,16.0,90,0.00,,,0.00,Wunderground v.1.15,2013-01-11 13:36:00,
2013-01-11 07:42:00,16.2,13.8,27.70,NNW,335,6.0,16.0,90,0.00,,,0.00,Wunderground v.1.15,2013-01-11 13:42:00,
2013-01-11 07:48:00,15.9,13.5,27.70,NNW,333,7.0,16.0,90,0.00,,,0.00,Wunderground v.1.15,2013-01-11 13:48:00,
2013-01-11 07:54:00,15.8,13.4,27.70,NNE,25,6.0,16.0,90,0.00,,,0.00,Wunderground v.1.15,2013-01-11 13:54:00,
2013-01-11 08:00:00,15.6,13.2,27.69,NW,314,6.0,6.0,90,0.00,,,0.00,Wunderground v.1.15,2013-01-11 14:00:00,
2013-01-11 08:06:00,15.5,13.1,27.67,NNW,339,7.0,16.0,90,0.00,,,0.00,Wunderground v.1.15,2013-01-11 14:06:00,
2013-01-11 08:12:00,15.4,13.0,27.70,NNW,335,7.0,16.0,90,0.00,,,0.00,Wunderground v.1.15,2013-01-11 14:12:00,
2013-01-11 08:18:00,15.3,12.9,27.71,NNW,346,6.0,16.0,90,0.00,,,0.00,Wunderground v.1.15,2013-01-11 14:18:00,
2013-01-11 08:24:00,15.3,12.9,27.71,NE,35,5.0,16.0,90,0.00,,,0.00,Wunderground v.1.15,2013-01-11 14:24:00,
2013-01-11 08:30:00,15.2,12.8,27.72,NNE,29,4.0,4.0,90,0.00,,,0.00,Wunderground v.1.15,2013-01-11 14:30:00,
2013-01-11 08:36:00,15.2,12.8,27.72,North,8,4.0,16.0,90,0.00,,,0.00,Wunderground v.1.15,2013-01-11 14:36:00,
2013-01-11 08:42:00,15.1,12.7,27.72,NNE,16,5.0,16.0,90,0.00,,,0.00,Wunderground v.1.15,2013-01-11 14:42:00,
2013-01-11 08:48:00,15.1,12.7,27.72,North,1,7.0,16.0,90,0.00,,,0.00,Wunderground v.1.15,2013-01-11 14:48:00,
2013-01-11 08:54:00,15.0,12.6,27.72,NE,48,7.0,16.0,90,0.00,,,0.00,Wunderground v.1.15,2013-01-11 14:54:00,
2013-01-11 09:00:00,14.9,12.5,27.72,NNW,335,8.0,8.0,90,0.00,,,0.00,Wunderground v.1.15,2013-01-11 15:00:00,
2013-01-11 09:06:00,14.9,12.5,27.73,NNE,22,6.0,16.0,90,0.00,,,0.00,Wunderground v.1.15,2013-01-11 15:06:00,
2013-01-11 09:12:00,14.9,12.5,27.73,NE,40,5.0,7.0,90,0.00,,,0.00,Wunderground v.1.15,2013-01-11 15:12:00,
2013-01-11 09:18:00,14.9,12.5,27.72,NE,40,5.0,16.0,90,0.00,,,0.00,Wunderground v.1.15,2013-01-11 15:18:00,
2013-01-11 09:24:00,14.9,12.5,27.73,WNW,302,6.0,16.0,90,0.00,,,0.00,Wunderground v.1.15,2013-01-11 15:24:00,
2013-01-11 09:30:00,14.9,12.5,27.74,NW,315,4.0,16.0,90,0.00,,,0.00,Wunderground v.1.15,2013-01-11 15:30:00,
2013-01-11 09:36:00,14.9,12.5,27.74,NNE,22,4.0,16.0,90,0.00,,,0.00,Wunderground v.1.15,2013-01-11 15:36:00,
2013-01-11 09:42:00,14.9,12.5,27.74,North,1,5.0,16.0,90,0.00,,,0.00,Wunderground v.1.15,2013-01-11 15:42:00,
2013-01-11 09:48:00,14.8,12.4,27.74,North,10,6.0,16.0,90,0.00,,,0.00,Wunderground v.1.15,2013-01-11 15:48:00,
2013-01-11 09:54:00,14.8,12.4,27.72,NNE,32,8.0,16.0,90,0.00,,,0.00,Wunderground v.1.15,2013-01-11 15:54:00,
2013-01-11 10:00:00,14.9,12.5,27.73,NNE,21,6.0,6.0,90,0.00,,,0.00,Wunderground v.1.15,2013-01-11 16:00:00,
2013-01-11 10:06:00,14.9,12.5,27.73,NNE,26,5.0,16.0,90,0.00,,,0.00,Wunderground v.1.15,2013-01-11 16:06:00,
2013-01-11 10:12:00,14.7,12.3,27.73,NNW,347,7.0,16.0,90,0.00,,,0.00,Wunderground v.1.15,2013-01-11 16:12:00,
2013-01-11 10:18:00,14.6,12.2,27.73,NNE,25,7.0,16.0,90,0.00,,,0.00,Wunderground v.1.15,2013-01-11 16:18:00,
2013-01-11 10:24:00,14.5,12.1,27.74,NNW,335,6.0,16.0,90,0.00,,,0.00,Wunderground v.1.15,2013-01-11 16:24:00,
2013-01-11 10:30:00,14.4,11.8,27.74,NNW,344,6.0,16.0,89,0.00,,,0.00,Wunderground v.1.15,2013-01-11 16:30:00,
2013-01-11 10:36:00,14.2,11.6,27.75,NNW,328,6.0,16.0,89,0.00,,,0.00,Wunderground v.1.15,2013-01-11 16:36:00,
2013-01-11 10:42:00,14.0,11.4,27.75,NNE,19,7.0,16.0,89,0.00,,,0.00,Wunderground v.1.15,2013-01-11 16:42:00,
2013-01-11 10:48:00,14.0,11.4,27.75,North,354,7.0,16.0,89,0.00,,,0.00,Wunderground v.1.15,2013-01-11 16:48:00,
2013-01-11 10:54:00,14.1,11.7,27.76,NNE,30,6.0,16.0,90,0.00,,,0.00,Wunderground v.1.15,2013-01-11 16:54:00,
2013-01-11 11:00:00,14.1,11.5,27.76,NW,322,4.0,16.0,89,0.00,,,0.00,Wunderground v.1.15,2013-01-11 17:00:00,
2013-01-11 11:06:00,14.1,11.5,27.75,NNW,338,4.0,16.0,89,0.00,,,0.00,Wunderground v.1.15,2013-01-11 17:06:00,
2013-01-11 11:12:00,14.1,11.5,27.75,NE,43,4.0,16.0,89,0.00,,,0.00,Wunderground v.1.15,2013-01-11 17:12:00,
2013-01-11 11:18:00,13.9,11.3,27.74,NNE,16,5.0,16.0,89,0.00,,,0.00,Wunderground v.1.15,2013-01-11 17:18:00,
2013-01-11 11:24:00,13.6,11.0,27.74,NW,304,7.0,16.0,89,0.00,,,0.00,Wunderground v.1.15,2013-01-11 17:24:00,
2013-01-11 11:30:00,13.4,10.8,27.75,North,349,6.0,6.0,89,0.00,,,0.00,Wunderground v.1.15,2013-01-11 17:30:00,
2013-01-11 11:36:00,13.5,10.9,27.75,NW,324,5.0,16.0,89,0.00,,,0.00,Wunderground v.1.15,2013-01-11 17:36:00,
2013-01-11 11:42:00,13.4,10.8,27.75,North,356,5.0,8.0,89,0.00,,,0.00,Wunderground v.1.15,2013-01-11 17:42:00,
2013-01-11 11:48:00,13.4,10.8,27.76,NNE,30,6.0,16.0,89,0.00,,,0.00,Wunderground v.1.15,2013-01-11 17:48:00,
2013-01-11 11:54:00,13.5,10.9,27.76,NE,38,4.0,16.0,89,0.00,,,0.00,Wunderground v.1.15,2013-01-11 17:54:00,
2013-01-11 12:00:00,13.4,10.8,27.76,North,360,4.0,16.0,89,0.00,,,0.00,Wunderground v.1.15,2013-01-11 18:00:00,
2013-01-11 12:06:00,13.2,10.6,27.75,North,360,5.0,16.0,89,0.00,,,0.00,Wunderground v.1.15,2013-01-11 18:06:00,
2013-01-11 12:12:00,13.2,10.6,27.75,NNW,348,5.0,16.0,89,0.00,,,0.00,Wunderground v.1.15,2013-01-11 18:12:00,
2013-01-11 12:18:00,13.2,10.6,27.75,North,360,5.0,16.0,89,0.00,,,0.00,Wunderground v.1.15,2013-01-11 18:18:00,
2013-01-11 12:24:00,13.3,10.7,27.75,NNE,25,4.0,16.0,89,0.00,,,0.00,Wunderground v.1.15,2013-01-11 18:24:00,
2013-01-11 12:30:00,13.0,10.1,27.74,North,9,6.0,16.0,88,0.00,,,0.00,Wunderground v.1.15,2013-01-11 18:30:00,
2013-01-11 12:36:00,13.0,10.4,27.74,NNW,347,7.0,16.0,89,0.00,,,0.00,Wunderground v.1.15,2013-01-11 18:36:00,
2013-01-11 12:42:00,13.0,10.4,27.74,WNW,302,6.0,16.0,89,0.00,,,0.00,Wunderground v.1.15,2013-01-11 18:42:00,
2013-01-11 12:48:00,13.1,10.5,27.74,NNE,21,6.0,16.0,89,0.00,,,0.00,Wunderground v.1.15,2013-01-11 18:48:00,
2013-01-11 12:54:00,13.1,10.5,27.73,NNW,327,6.0,16.0,89,0.00,,,0.00,Wunderground v.1.15,2013-01-11 18:54:00,
2013-01-11 13:00:00,12.8,9.9,27.74,North,352,7.0,7.0,88,0.00,,,0.00,Wunderground v.1.15,2013-01-11 19:00:00,
2013-01-11 13:06:00,12.7,9.8,27.74,NNW,345,6.0,16.0,88,0.00,,,0.00,Wunderground v.1.15,2013-01-11 19:06:00,
2013-01-11 13:12:00,12.5,9.6,27.74,North,6,5.0,16.0,88,0.00,,,0.00,Wunderground v.1.15,2013-01-11 19:12:00,
2013-01-11 13:18:00,12.7,10.1,27.73,NNE,16,5.0,16.0,89,0.00,,,0.00,Wunderground v.1.15,2013-01-11 19:18:00,
2013-01-11 13:24:00,12.8,10.2,27.73,NNE,20,5.0,16.0,89,0.00,,,0.00,Wunderground v.1.15,2013-01-11 19:24:00,
2013-01-11 13:30:00,12.8,10.2,27.73,NNW,338,4.0,16.0,89,0.00,,,0.00,Wunderground v.1.15,2013-01-11 19:30:00,
2013-01-11 13:36:00,12.9,10.0,27.73,NW,321,4.0,16.0,88,0.00,,,0.00,Wunderground v.1.15,2013-01-11 19:36:00,
2013-01-11 13:42:00,12.8,9.9,27.73,NW,314,5.0,16.0,88,0.00,,,0.00,Wunderground v.1.15,2013-01-11 19:42:00,
2013-01-11 13:48:00,12.7,9.8,27.73,NNW,330,6.0,16.0,88,0.00,,,0.00,Wunderground v.1.15,2013-01-11 19:48:00,
2013-01-11 13:54:00,12.6,9.7,27.73,WNW,294,7.0,16.0,88,0.00,,,0.00,Wunderground v.1.15,2013-01-11 19:54:00,
2013-01-11 14:00:00,12.6,9.7,27.73,NNW,343,6.0,16.0,88,0.00,,,0.00,Wunderground v.1.15,2013-01-11 20:00:00,
2013-01-11 14:06:00,12.5,9.4,27.73,NNW,343,6.0,16.0,87,0.00,,,0.00,Wunderground v.1.15,2013-01-11 20:06:00,
2013-01-11 14:12:00,12.4,9.3,27.73,NW,325,7.0,9.0,87,0.00,,,0.00,Wunderground v.1.15,2013-01-11 20:12:00,
2013-01-11 14:18:00,12.2,9.1,27.73,NNW,340,7.0,16.0,87,0.00,,,0.00,Wunderground v.1.15,2013-01-11 20:18:00,
2013-01-11 14:24:00,12.1,9.0,27.73,NNW,328,7.0,16.0,87,0.00,,,0.00,Wunderground v.1.15,2013-01-11 20:24:00,
2013-01-11 14:30:00,12.0,8.9,27.72,NNW,335,6.0,6.0,87,0.00,,,0.00,Wunderground v.1.15,2013-01-11 20:30:00,
2013-01-11 14:36:00,12.0,8.9,27.73,North,7,5.0,16.0,87,0.00,,,0.00,Wunderground v.1.15,2013-01-11 20:36:00,
2013-01-11 14:42:00,11.7,8.6,27.73,NNW,327,6.0,16.0,87,0.00,,,0.00,Wunderground v.1.15,2013-01-11 20:42:00,
2013-01-11 14:48:00,11.5,8.4,27.74,NNW,338,7.0,16.0,87,0.00,,,0.00,Wunderground v.1.15,2013-01-11 20:48:00,
2013-01-11 14:54:00,11.5,8.4,27.74,NNW,328,6.0,16.0,87,0.00,,,0.00,Wunderground v.1.15,2013-01-11 20:54:00,
2013-01-11 15:00:00,11.5,8.6,27.75,NNW,335,4.0,16.0,88,0.00,,,0.00,Wunderground v.1.15,2013-01-11 21:00:00,
2013-01-11 15:06:00,11.5,8.4,27.75,North,349,4.0,16.0,87,0.00,,,0.00,Wunderground v.1.15,2013-01-11 21:06:00,
2013-01-11 15:12:00,11.4,8.3,27.75,North,352,6.0,16.0,87,0.00,,,0.00,Wunderground v.1.15,2013-01-11 21:12:00,
2013-01-11 15:18:00,11.3,8.2,27.75,NW,321,6.0,16.0,87,0.00,,,0.00,Wunderground v.1.15,2013-01-11 21:18:00,
2013-01-11 15:24:00,11.1,8.0,27.75,NNW,331,6.0,16.0,87,0.00,,,0.00,Wunderground v.1.15,2013-01-11 21:24:00,
2013-01-11 15:30:00,11.1,8.0,27.76,North,352,6.0,16.0,87,0.00,,,0.00,Wunderground v.1.15,2013-01-11 21:30:00,
2013-01-11 15:36:00,11.0,7.9,27.76,NNW,333,6.0,16.0,87,0.00,,,0.00,Wunderground v.1.15,2013-01-11 21:36:00,
2013-01-11 15:42:00,10.9,7.8,27.75,NW,315,6.0,16.0,87,0.00,,,0.00,Wunderground v.1.15,2013-01-11 21:42:00,
2013-01-11 15:48:00,10.8,7.7,27.76,WNW,292,5.0,16.0,87,0.00,,,0.00,Wunderground v.1.15,2013-01-11 21:48:00,
2013-01-11 15:54:00,10.6,7.2,27.75,NNW,337,5.0,16.0,86,0.00,,,0.00,Wunderground v.1.15,2013-01-11 21:54:00,
2013-01-11 16:00:00,10.5,7.1,27.75,NNW,337,6.0,16.0,86,0.00,,,0.00,Wunderground v.1.15,2013-01-11 22:00:00,
2013-01-11 16:06:00,10.5,7.4,27.76,NW,310,6.0,16.0,87,0.00,,,0.00,Wunderground v.1.15,2013-01-11 22:06:00,
2013-01-11 16:12:00,10.4,7.0,27.76,North,359,6.0,16.0,86,0.00,,,0.00,Wunderground v.1.15,2013-01-11 22:12:00,
2013-01-11 16:18:00,10.3,7.2,27.76,NNW,347,5.0,16.0,87,0.00,,,0.00,Wunderground v.1.15,2013-01-11 22:18:00,
2013-01-11 16:24:00,10.2,6.8,27.77,WNW,300,5.0,16.0,86,0.00,,,0.00,Wunderground v.1.15,2013-01-11 22:24:00,
2013-01-11 16:30:00,10.2,6.8,27.77,WNW,283,6.0,6.0,86,0.00,,,0.00,Wunderground v.1.15,2013-01-11 22:30:00,
2013-01-11 16:36:00,10.0,6.6,27.77,WNW,297,7.0,16.0,86,0.00,,,0.00,Wunderground v.1.15,2013-01-11 22:36:00,
2013-01-11 16:42:00,9.9,6.6,27.78,WNW,288,8.0,16.0,86,0.00,,,0.00,Wunderground v.1.15,2013-01-11 22:42:00,
2013-01-11 16:48:00,9.8,6.5,27.77,NNW,335,7.0,16.0,86,0.00,,,0.00,Wunderground v.1.15,2013-01-11 22:48:00,
2013-01-11 16:54:00,9.6,6.3,27.78,NNW,335,7.0,16.0,86,0.00,,,0.00,Wunderground v.1.15,2013-01-11 22:54:00,
2013-01-11 17:00:00,9.5,6.2,27.78,NNW,347,8.0,16.0,86,0.00,,,0.00,Wunderground v.1.15,2013-01-11 23:00:00,
2013-01-11 17:06:00,9.4,6.1,27.78,NNW,333,7.0,16.0,86,0.00,,,0.00,Wunderground v.1.15,2013-01-11 23:06:00,
2013-01-11 17:12:00,9.3,6.0,27.78,North,357,7.0,16.0,86,0.00,,,0.00,Wunderground v.1.15,2013-01-11 23:12:00,
2013-01-11 17:18:00,9.2,5.9,27.78,NNW,328,7.0,16.0,86,0.00,,,0.00,Wunderground v.1.15,2013-01-11 23:18:00,
2013-01-11 17:24:00,9.1,5.8,27.78,NNW,338,7.0,16.0,86,0.00,,,0.00,Wunderground v.1.15,2013-01-11 23:24:00,
2013-01-11 17:30:00,8.9,5.6,27.78,NNW,329,8.0,16.0,86,0.00,,,0.00,Wunderground v.1.15,2013-01-11 23:30:00,
2013-01-11 17:36:00,8.9,5.6,27.78,NNW,329,8.0,16.0,86,0.00,,,0.00,Wunderground v.1.15,2013-01-11 23:36:00,
2013-01-11 17:42:00,8.7,5.4,27.78,North,349,7.0,16.0,86,0.00,,,0.00,Wunderground v.1.15,2013-01-11 23:42:00,
2013-01-11 17:48:00,8.5,5.2,27.78,NW,311,7.0,16.0,86,0.00,,,0.00,Wunderground v.1.15,2013-01-11 23:48:00,
2013-01-11 17:54:00,8.2,4.9,27.78,NNW,328,8.0,16.0,86,0.00,,,0.00,Wunderground v.1.15,2013-01-11 23:54:00,
2013-01-11 18:00:00,8.1,4.8,27.78,NW,316,7.0,7.0,86,0.00,,,0.00,Wunderground v.1.15,2013-01-12 00:00:00,
2013-01-11 18:06:00,8.0,4.7,27.78,NNW,327,8.0,16.0,86,0.00,,,0.00,Wunderground v.1.15,2013-01-12 00:06:00,
2013-01-11 18:12:00,7.8,4.5,27.78,NE,39,8.0,16.0,86,0.00,,,0.00,Wunderground v.1.15,2013-01-12 00:12:00,
2013-01-11 18:18:00,7.8,4.5,27.79,NW,319,8.0,16.0,86,0.00,,,0.00,Wunderground v.1.15,2013-01-12 00:18:00,
2013-01-11 18:24:00,7.7,4.4,27.78,NNE,12,6.0,11.0,86,0.00,,,0.00,Wunderground v.1.15,2013-01-12 00:24:00,
2013-01-11 18:30:00,7.6,4.3,27.79,West,278,6.0,6.0,86,0.00,,,0.00,Wunderground v.1.15,2013-01-12 00:30:00,
2013-01-11 18:36:00,7.6,4.3,27.79,North,352,6.0,16.0,86,0.00,,,0.00,Wunderground v.1.15,2013-01-12 00:36:00,
2013-01-11 18:42:00,7.5,4.2,27.79,NW,323,6.0,16.0,86,0.00,,,0.00,Wunderground v.1.15,2013-01-12 00:42:00,
2013-01-11 18:48:00,7.4,4.1,27.80,NNE,29,7.0,16.0,86,0.00,,,0.00,Wunderground v.1.15,2013-01-12 00:48:00,
2013-01-11 18:54:00,7.4,4.1,27.80,NNW,335,7.0,16.0,86,0.00,,,0.00,Wunderground v.1.15,2013-01-12 00:54:00,
2013-01-11 19:00:00,7.3,4.0,27.80,WNW,297,7.0,7.0,86,0.00,,,0.00,Wunderground v.1.15,2013-01-12 01:00:00,
2013-01-11 19:06:00,7.2,3.9,27.80,WNW,285,7.0,16.0,86,0.00,,,0.00,Wunderground v.1.15,2013-01-12 01:06:00,
2013-01-11 19:12:00,7.2,3.9,27.80,NW,321,7.0,16.0,86,0.00,,,0.00,Wunderground v.1.15,2013-01-12 01:12:00,
2013-01-11 19:18:00,7.1,3.8,27.80,NNE,30,7.0,16.0,86,0.00,,,0.00,Wunderground v.1.15,2013-01-12 01:18:00,
2013-01-11 19:24:00,7.1,3.8,27.81,NNW,333,6.0,16.0,86,0.00,,,0.00,Wunderground v.1.15,2013-01-12 01:24:00,
2013-01-11 19:30:00,7.0,3.4,27.81,NNE,22,6.0,16.0,85,0.00,,,0.00,Wunderground v.1.15,2013-01-12 01:30:00,
2013-01-11 19:36:00,6.6,3.0,27.81,NW,309,8.0,16.0,85,0.00,,,0.00,Wunderground v.1.15,2013-01-12 01:36:00,
2013-01-11 19:42:00,6.5,3.0,27.81,NNW,342,6.0,16.0,85,0.00,,,0.00,Wunderground v.1.15,2013-01-12 01:42:00,
2013-01-11 19:48:00,6.5,3.0,27.81,NNW,346,6.0,16.0,85,0.00,,,0.00,Wunderground v.1.15,2013-01-12 01:48:00,
2013-01-11 19:54:00,6.4,3.1,27.82,WNW,284,6.0,16.0,86,0.00,,,0.00,Wunderground v.1.15,2013-01-12 01:54:00,
2013-01-11 20:00:00,6.4,2.9,27.82,North,356,5.0,5.0,85,0.00,,,0.00,Wunderground v.1.15,2013-01-12 02:00:00,
2013-01-11 20:06:00,6.3,3.0,27.82,North,349,6.0,16.0,86,0.00,,,0.00,Wunderground v.1.15,2013-01-12 02:06:00,
2013-01-11 20:12:00,6.2,2.9,27.82,North,10,6.0,16.0,86,0.00,,,0.00,Wunderground v.1.15,2013-01-12 02:12:00,
2013-01-11 20:18:00,6.2,2.9,27.82,NNW,347,6.0,16.0,86,0.00,,,0.00,Wunderground v.1.15,2013-01-12 02:18:00,
2013-01-11 20:24:00,6.2,2.9,27.83,NW,311,6.0,9.0,86,0.00,,,0.00,Wunderground v.1.15,2013-01-12 02:24:00,
2013-01-11 20:30:00,6.2,2.9,27.83,North,10,6.0,16.0,86,0.00,,,0.00,Wunderground v.1.15,2013-01-12 02:30:00,
2013-01-11 20:36:00,6.1,2.8,27.83,NW,307,6.0,16.0,86,0.00,,,0.00,Wunderground v.1.15,2013-01-12 02:36:00,
2013-01-11 20:42:00,6.1,2.8,27.83,NNW,343,6.0,16.0,86,0.00,,,0.00,Wunderground v.1.15,2013-01-12 02:42:00,
2013-01-11 20:48:00,6.1,2.8,27.83,NNE,23,6.0,16.0,86,0.00,,,0.00,Wunderground v.1.15,2013-01-12 02:48:00,
2013-01-11 20:54:00,6.1,2.8,27.83,WNW,300,5.0,16.0,86,0.00,,,0.00,Wunderground v.1.15,2013-01-12 02:54:00,
2013-01-11 21:00:00,6.0,2.7,27.83,NNW,344,5.0,16.0,86,0.00,,,0.00,Wunderground v.1.15,2013-01-12 03:00:00,
2013-01-11 21:06:00,6.0,2.7,27.83,North,1,6.0,16.0,86,0.00,,,0.00,Wunderground v.1.15,2013-01-12 03:06:00,
2013-01-11 21:12:00,5.9,2.6,27.84,NE,43,5.0,16.0,86,0.00,,,0.00,Wunderground v.1.15,2013-01-12 03:12:00,
2013-01-11 21:18:00,5.9,2.6,27.84,NW,325,5.0,16.0,86,0.00,,,0.00,Wunderground v.1.15,2013-01-12 03:18:00,
2013-01-11 21:24:00,5.8,2.5,27.84,NNW,327,7.0,16.0,86,0.00,,,0.00,Wunderground v.1.15,2013-01-12 03:24:00,
2013-01-11 21:30:00,5.6,2.3,27.85,WNW,300,7.0,16.0,86,0.00,,,0.00,Wunderground v.1.15,2013-01-12 03:30:00,
2013-01-11 21:36:00,5.3,1.8,27.85,NW,314,8.0,16.0,85,0.00,,,0.00,Wunderground v.1.15,2013-01-12 03:36:00,
2013-01-11 21:42:00,5.0,1.5,27.85,NW,323,8.0,16.0,85,0.00,,,0.00,Wunderground v.1.15,2013-01-12 03:42:00,
2013-01-11 21:48:00,4.9,1.6,27.85,NW,315,7.0,16.0,86,0.00,,,0.00,Wunderground v.1.15,2013-01-12 03:48:00,
2013-01-11 21:54:00,4.8,1.5,27.85,WNW,300,7.0,16.0,86,0.00,,,0.00,Wunderground v.1.15,2013-01-12 03:54:00,
2013-01-11 22:00:00,4.7,1.4,27.85,NW,323,7.0,7.0,86,0.00,,,0.00,Wunderground v.1.15,2013-01-12 04:00:00,
2013-01-11 22:06:00,4.7,1.4,27.85,NNW,347,7.0,16.0,86,0.00,,,0.00,Wunderground v.1.15,2013-01-12 04:06:00,
2013-01-11 22:12:00,4.6,1.3,27.85,North,1,7.0,16.0,86,0.00,,,0.00,Wunderground v.1.15,2013-01-12 04:12:00,
2013-01-11 22:18:00,4.6,1.3,27.85,NNW,328,7.0,16.0,86,0.00,,,0.00,Wunderground v.1.15,2013-01-12 04:18:00,
2013-01-11 22:24:00,4.4,1.1,27.85,North,359,7.0,16.0,86,0.00,,,0.00,Wunderground v.1.15,2013-01-12 04:24:00,
2013-01-11 22:30:00,4.4,1.1,27.85,North,352,7.0,7.0,86,0.00,,,0.00,Wunderground v.1.15,2013-01-12 04:30:00,
2013-01-11 22:36:00,4.3,0.8,27.85,NNW,337,8.0,16.0,85,0.00,,,0.00,Wunderground v.1.15,2013-01-12 04:36:00,
2013-01-11 22:42:00,4.3,0.8,27.85,WNW,303,9.0,16.0,85,0.00,,,0.00,Wunderground v.1.15,2013-01-12 04:42:00,
2013-01-11 22:48:00,4.3,0.8,27.85,NNW,340,8.0,16.0,85,0.00,,,0.00,Wunderground v.1.15,2013-01-12 04:48:00,
2013-01-11 22:54:00,4.2,0.7,27.85,NW,318,8.0,17.0,85,0.00,,,0.00,Wunderground v.1.15,2013-01-12 04:54:00,
2013-01-11 23:02:00,4.1,0.6,27.85,NW,307,9.0,16.0,85,0.00,,,0.00,Wunderground v.1.15,2013-01-12 05:02:00,
2013-01-11 23:04:00,4.1,0.6,27.85,NNW,340,8.0,16.0,85,0.00,,,0.00,Wunderground v.1.15,2013-01-12 05:04:00,
2013-01-11 23:08:00,4.1,0.6,27.85,NW,325,8.0,16.0,85,0.00,,,0.00,Wunderground v.1.15,2013-01-12 05:08:00,
2013-01-11 23:14:00,4.0,0.5,27.85,WNW,297,7.0,16.0,85,0.00,,,0.00,Wunderground v.1.15,2013-01-12 05:14:00,
2013-01-11 23:18:00,4.0,0.5,27.86,NNW,335,8.0,16.0,85,0.00,,,0.00,Wunderground v.1.15,2013-01-12 05:18:00,
2013-01-11 23:24:00,3.9,0.1,27.86,North,352,8.0,16.0,84,0.00,,,0.00,Wunderground v.1.15,2013-01-12 05:24:00,
2013-01-11 23:30:00,3.8,0.0,27.86,North,349,8.0,8.0,84,0.00,,,0.00,Wunderground v.1.15,2013-01-12 05:30:00,
2013-01-11 23:36:00,3.7,-0.1,27.86,NNW,329,9.0,16.0,84,0.00,,,0.00,Wunderground v.1.15,2013-01-12 05:36:00,
2013-01-11 23:42:00,3.7,-0.1,27.86,WNW,302,9.0,11.0,84,0.00,,,0.00,Wunderground v.1.15,2013-01-12 05:42:00,
2013-01-11 23:48:00,3.8,0.0,27.86,WNW,290,8.0,16.0,84,0.00,,,0.00,Wunderground v.1.15,2013-01-12 05:48:00,
2013-01-11 23:54:00,3.8,0.0,27.86,NNW,332,8.0,16.0,84,0.00,,,0.00,Wunderground v.1.15,2013-01-12 05:54:00,